Flood From: 18-02-2018 10:00 Until: 19-02-2018 06:00 warning for: Flood Level: Yellow info button

Although rather usual in this region, locally or potentially dangerous phenomena are expected. (such as local winds, summer thunderstorms, rising streams or high waves) Be aware and pay attention to the latest weather updates, especially if you carry out activities exposed to weather or close to a stream or shoreline. 


Meteo18 Weather Cam more information Meteo18 Weather Cam


Thunder radar more information blitzortung!


Rain radar more information rain snow radar


Visit our other weather sites:

Template documentation
and downloads

And another site



Weather Underground History page Text

Daily Summary for July 14, 2016 Units:  Metric    English   Both
« Previous Day
Next Day »
Daily Weekly Monthly Yearly Custom
  High: Low: Average:
Temperature: -17.8 °C -12.3 °C -9.9 °C
Dew Point: -17.8 °C -13.1 °C -12.3 °C
Humidity: Humidity % 50 % 77 %
Wind Speed: 0 km/h 0 km/h 2.6 km/h
Wind Gust: 0 km/h - -
Wind:- - ENE
Pressure: 0 hPa 34577.8 hPa -
Precipitation: 33.02 mm    
Historical Graphs
 
 
Tabular Data for July 14, 2016
Time Temperature Dew Point Pressure Wind Wind Speed Wind Gust Humidity Rainfall Rate (Hourly)
-17.8 °C -17.8 °C 0 hPa Calm     Humidity % 0 mm
00:02 -11.8 °C -12.4 °C 34591.4 hPa Calm     93 % 0 mm
00:07 -11.9 °C -12.5 °C 34591.4 hPa Calm     93 % 0 mm
00:12 -12 °C -12.6 °C 34591.4 hPa Calm     93 % 0 mm
00:17 -12.1 °C -12.7 °C 34591.4 hPa Calm     93 % 0 mm
00:22 -12.1 °C -12.6 °C 34591.4 hPa Calm     94 % 0 mm
00:27 -12.1 °C -12.6 °C 34601.5 hPa Calm     94 % 0 mm
00:32 -12.1 °C -12.6 °C 34601.5 hPa Calm     94 % 0 mm
00:42 -12.2 °C -12.7 °C 34601.5 hPa Calm     94 % 0 mm
00:47 -12.3 °C -12.7 °C 34601.5 hPa Calm     95 % 0 mm
00:52 -12.2 °C -12.6 °C 34591.4 hPa Calm     95 % 0 mm
00:57 -12.1 °C -12.4 °C 34591.4 hPa Calm     96 % 0 mm
01:02 -12 °C -12.3 °C 34591.4 hPa Calm     96 % 0 mm
01:12 -11.9 °C -12.2 °C 34591.4 hPa Calm     96 % 0 mm
01:17 -11.8 °C -12.2 °C 34591.4 hPa Calm     96 % 0 mm
01:22 -11.8 °C -12.2 °C 34591.4 hPa Calm     95 % 0 mm
01:27 -11.7 °C -12.2 °C 34591.4 hPa Calm   2.6 km/h 95 % 0 mm
01:32 -11.7 °C -12.2 °C 34591.4 hPa Calm   2.6 km/h 95 % 0 mm
01:42 -11.7 °C -12.2 °C 34591.4 hPa Calm   5.1 km/h 95 % 0 mm
01:47 -11.7 °C -12.2 °C 34591.4 hPa Calm   5.1 km/h 94 % 0 mm
01:52 -11.7 °C -12.2 °C 34591.4 hPa Calm   5.1 km/h 94 % 0 mm
01:57 -11.6 °C -12.1 °C 34591.4 hPa Calm   2.6 km/h 94 % 0 mm
02:02 -11.6 °C -12.2 °C 34591.4 hPa Calm   2.6 km/h 93 % 0 mm
02:07 -11.7 °C -12.3 °C 34591.4 hPa Calm   2.6 km/h 93 % 7.62 mm
02:12 -11.7 °C -12.3 °C 34591.4 hPa Calm     93 % 7.62 mm
02:17 -11.6 °C -12.2 °C 34591.4 hPa ENE 2.6 km/h 5.1 km/h 93 % 7.62 mm
02:22 -11.6 °C -12.2 °C 34591.4 hPa Calm   5.1 km/h 93 % 7.62 mm
02:27 -11.6 °C -12.2 °C 34591.4 hPa Calm   5.1 km/h 93 % 7.62 mm
02:32 -11.6 °C -12.2 °C 34591.4 hPa Calm   5.1 km/h 93 % 7.62 mm
02:42 -11.6 °C -12.3 °C 34591.4 hPa Calm   5.1 km/h 92 % 7.62 mm
02:47 -11.6 °C -12.3 °C 34591.4 hPa Calm   5.1 km/h 92 % 7.62 mm
02:52 -11.6 °C -12.3 °C 34591.4 hPa East 2.6 km/h 5.1 km/h 92 % 7.62 mm
02:57 -11.6 °C -12.3 °C 34591.4 hPa Calm   5.1 km/h 92 % 7.62 mm
03:02 -11.7 °C -12.3 °C 34591.4 hPa ENE 5.1 km/h 7.7 km/h 92 % 7.62 mm
03:12 -11.7 °C -12.4 °C 34591.4 hPa Calm   7.7 km/h 92 % 0 mm
03:17 -11.8 °C -12.4 °C 34577.8 hPa Calm   7.7 km/h 92 % 0 mm
03:22 -11.8 °C -12.5 °C 34591.4 hPa Calm   2.6 km/h 92 % 0 mm
03:32 -11.9 °C -12.6 °C 34591.4 hPa Calm   2.6 km/h 93 % 0 mm
03:37 -12 °C -12.6 °C 34591.4 hPa Calm   2.6 km/h 93 % 0 mm
03:42 -12 °C -12.6 °C 34591.4 hPa Calm   2.6 km/h 93 % 0 mm
03:47 -11.9 °C -12.4 °C 34591.4 hPa Calm   2.6 km/h 94 % 0 mm
03:52 -11.8 °C -12.3 °C 34591.4 hPa NE 2.6 km/h 7.7 km/h 94 % 0 mm
03:57 -11.8 °C -12.4 °C 34577.8 hPa Calm   7.7 km/h 93 % 0 mm
04:02 -11.7 °C -12.3 °C 34577.8 hPa Calm   7.7 km/h 93 % 0 mm
04:07 -11.7 °C -12.3 °C 34577.8 hPa Calm   7.7 km/h 93 % 0 mm
04:12 -11.7 °C -12.3 °C 34577.8 hPa Calm   7.7 km/h 93 % 0 mm
04:17 -11.8 °C -12.4 °C 34577.8 hPa Calm   7.7 km/h 93 % 0 mm
04:22 -11.8 °C -12.4 °C 34577.8 hPa Calm   2.6 km/h 93 % 0 mm
04:27 -11.7 °C -12.3 °C 34577.8 hPa Calm     93 % 0 mm
04:32 -11.7 °C -12.3 °C 34577.8 hPa Calm     93 % 0 mm
04:37 -11.7 °C -12.3 °C 34577.8 hPa Calm     93 % 0 mm
04:42 -11.7 °C -12.3 °C 34577.8 hPa Calm     93 % 0 mm
04:47 -11.8 °C -12.4 °C 34577.8 hPa Calm     93 % 0 mm
04:52 -11.7 °C -12.3 °C 34577.8 hPa Calm     93 % 0 mm
04:57 -11.7 °C -12.4 °C 34577.8 hPa Calm     92 % 0 mm
05:02 -11.7 °C -12.4 °C 34577.8 hPa Calm     92 % 0 mm
05:07 -11.7 °C -12.4 °C 34577.8 hPa Calm     92 % 0 mm
05:12 -11.7 °C -12.3 °C 34577.8 hPa Calm     93 % 0 mm
05:17 -11.8 °C -12.4 °C 34577.8 hPa Calm     93 % 0 mm
05:22 -11.8 °C -12.4 °C 34577.8 hPa Calm     93 % 0 mm
05:27 -11.8 °C -12.4 °C 34577.8 hPa Calm     93 % 0 mm
05:32 -11.8 °C -12.4 °C 34577.8 hPa Calm     93 % 0 mm
05:37 -11.8 °C -12.4 °C 34577.8 hPa Calm     93 % 0 mm
05:42 -11.9 °C -12.6 °C 34577.8 hPa Calm     92 % 0 mm
05:47 -11.9 °C -12.6 °C 34577.8 hPa Calm     93 % 0 mm
05:57 -12.1 °C -12.7 °C 34577.8 hPa Calm     93 % 0 mm
06:02 -12.1 °C -12.7 °C 34577.8 hPa Calm     93 % 0 mm
06:07 -12.1 °C -12.7 °C 34577.8 hPa Calm     93 % 0 mm
06:12 -12.2 °C -12.8 °C 34577.8 hPa Calm     93 % 0 mm
06:17 -12.2 °C -12.7 °C 34591.4 hPa Calm     94 % 0 mm
06:22 -12.2 °C -12.7 °C 34591.4 hPa Calm     94 % 0 mm
06:27 -12.1 °C -12.6 °C 34591.4 hPa Calm     94 % 0 mm
06:32 -12.1 °C -12.6 °C 34591.4 hPa Calm     95 % 0 mm
06:42 -12.2 °C -12.7 °C 34591.4 hPa Calm     94 % 0 mm
06:47 -12.2 °C -12.7 °C 34591.4 hPa Calm     94 % 0 mm
06:52 -12.2 °C -12.6 °C 34591.4 hPa Calm     95 % 0 mm
07:02 -12.1 °C -12.6 °C 34591.4 hPa Calm     95 % 0 mm
07:07 -12.1 °C -12.5 °C 34591.4 hPa Calm     95 % 0 mm
07:12 -12 °C -12.4 °C 34591.4 hPa Calm     95 % 0 mm
07:17 -11.9 °C -12.3 °C 34591.4 hPa Calm     95 % 0 mm
07:22 -11.8 °C -12.3 °C 34591.4 hPa Calm     95 % 0 mm
07:27 -11.9 °C -12.3 °C 34601.5 hPa Calm     95 % 0 mm
07:32 -11.8 °C -12.3 °C 34591.4 hPa Calm     95 % 0 mm
07:37 -11.8 °C -12.2 °C 34591.4 hPa Calm     95 % 0 mm
07:42 -11.8 °C -12.2 °C 34591.4 hPa Calm     95 % 0 mm
07:47 -11.8 °C -12.2 °C 34591.4 hPa Calm     95 % 0 mm
07:52 -11.7 °C -12.2 °C 34601.5 hPa Calm     94 % 0 mm
07:57 -11.7 °C -12.2 °C 34601.5 hPa Calm     94 % 0 mm
08:02 -11.6 °C -12.1 °C 34601.5 hPa Calm     94 % 0 mm
08:07 -11.6 °C -12.1 °C 34601.5 hPa Calm     94 % 0 mm
08:12 -11.6 °C -12.2 °C 34601.5 hPa Calm     93 % 0 mm
08:17 -11.4 °C -11.9 °C 34601.5 hPa Calm     94 % 0 mm
08:22 -11.3 °C -11.9 °C 34601.5 hPa Calm     93 % 0 mm
08:27 -11.3 °C -11.9 °C 34601.5 hPa Calm     93 % 0 mm
08:32 -11.2 °C -11.9 °C 34601.5 hPa Calm     92 % 0 mm
08:37 -11.2 °C -12 °C 34601.5 hPa Calm     91 % 0 mm
08:42 -11.2 °C -12 °C 34601.5 hPa Calm     91 % 0 mm
08:47 -11.2 °C -12 °C 34601.5 hPa Calm     91 % 0 mm
08:52 -11.2 °C -11.9 °C 34601.5 hPa Calm     92 % 0 mm
08:57 -10.9 °C -11.7 °C 34601.5 hPa Calm     92 % 0 mm
09:02 -10.7 °C -11.4 °C 34601.5 hPa Calm     91 % 0 mm
09:12 -10.4 °C -11.5 °C 34611.7 hPa Calm     88 % 0 mm
09:17 -10.4 °C -11.6 °C 34611.7 hPa Calm     87 % 0 mm
09:22 -10.3 °C -11.6 °C 34611.7 hPa Calm     86 % 0 mm
09:32 -10.1 °C -11.5 °C 34611.7 hPa Calm     85 % 0 mm
09:37 -9.9 °C -11.4 °C 34611.7 hPa Calm     84 % 0 mm
09:42 -9.7 °C -11.3 °C 34611.7 hPa Calm     82 % 0 mm
09:47 -9.6 °C -11.6 °C 34611.7 hPa Calm     79 % 0 mm
09:52 -9.6 °C -11.8 °C 34611.7 hPa Calm     77 % 0 mm
10:02 -9.5 °C -11.4 °C 34611.7 hPa Calm     80 % 0 mm
10:07 -9.1 °C -11.5 °C 34611.7 hPa Calm     75 % 0 mm
10:12 -8.9 °C -11.7 °C 34611.7 hPa Calm     72 % 0 mm
10:17 -9.1 °C -12 °C 34611.7 hPa Calm     71 % 0 mm
10:22 -9.3 °C -12.1 °C 34611.7 hPa Calm     72 % 0 mm
10:27 -9.2 °C -11.9 °C 34611.7 hPa Calm     73 % 0 mm
10:32 -9.2 °C -11.9 °C 34611.7 hPa Calm     72 % 0 mm
10:37 -8.7 °C -11.4 °C 34611.7 hPa Calm     73 % 0 mm
10:42 -8.5 °C -11.9 °C 34601.5 hPa Calm     67 % 0 mm
10:47 -8.5 °C -12.8 °C 34601.5 hPa East 2.6 km/h 18.2 km/h 60 % 0 mm
10:52 -8.3 °C -12.8 °C 34601.5 hPa Calm   18.2 km/h 59 % 0 mm
10:57 -8 °C -11.9 °C 34601.5 hPa ENE 2.6 km/h 18.2 km/h 63 % 0 mm
11:02 -8.1 °C -13.1 °C 34601.5 hPa ENE 5.1 km/h 18.2 km/h 56 % 0 mm
11:12 -7.9 °C -12.9 °C 34601.5 hPa ESE 2.6 km/h 20.8 km/h 56 % 0 mm
11:17 -7.9 °C -12.8 °C 34601.5 hPa East 7.7 km/h 15.6 km/h 56 % 0 mm
11:22 -7.8 °C -12.2 °C 34601.5 hPa Calm   18.2 km/h 60 % 0 mm
11:27 -7.7 °C -12.8 °C 34601.5 hPa NE 12.9 km/h 18.2 km/h 55 % 0 mm
11:32 -7.7 °C -12.8 °C 34611.7 hPa NNE 10.3 km/h 20.8 km/h 55 % 0 mm
11:42 -8.2 °C -13 °C 34611.7 hPa Calm   25.9 km/h 57 % 0 mm
11:47 -8.3 °C -12.5 °C 34611.7 hPa Calm   25.9 km/h 61 % 0 mm
11:52 -7.8 °C -12.5 °C 34601.5 hPa NE 10.3 km/h 25.9 km/h 58 % 0 mm
11:57 -7.8 °C -12.9 °C 34601.5 hPa NE 10.3 km/h 18.2 km/h 55 % 0 mm
12:02 -7.8 °C -12.5 °C 34601.5 hPa Calm   18.2 km/h 58 % 0 mm
12:07 -7.6 °C -12.6 °C 34601.5 hPa East 5.1 km/h 31.1 km/h 56 % 0 mm
12:12 -7.5 °C -12.2 °C 34601.5 hPa NE 10.3 km/h 31.1 km/h 58 % 0 mm
12:17 -7.7 °C -12.8 °C 34601.5 hPa Calm   31.1 km/h 55 % 0 mm
12:22 -7.7 °C -12.7 °C 34611.7 hPa SSW 2.6 km/h 31.1 km/h 56 % 0 mm
12:27 -7.6 °C -12.5 °C 34601.5 hPa NE 18.2 km/h 28.5 km/h 56 % 0 mm
12:32 -7.2 °C -12.2 °C 34601.5 hPa NE 15.6 km/h 28.5 km/h 56 % 0 mm
12:37 -6.9 °C -12.3 °C 34601.5 hPa NE 5.1 km/h 31.1 km/h 53 % 0 mm
12:42 -7.1 °C -12.7 °C 34601.5 hPa NE 5.1 km/h 31.1 km/h 52 % 0 mm
12:47 -7.4 °C -12.8 °C 34611.7 hPa NNE 12.9 km/h 31.1 km/h 53 % 0 mm
12:52 -7.7 °C -12.8 °C 34611.7 hPa ENE 5.1 km/h 25.9 km/h 55 % 0 mm
12:57 -8.1 °C -12.3 °C 34611.7 hPa NE 5.1 km/h 15.6 km/h 61 % 0 mm
13:02 -8.7 °C -12.2 °C 34625.2 hPa East 5.1 km/h 18.2 km/h 66 % 0 mm
13:12 -9.3 °C -12.9 °C 34625.2 hPa ENE 2.6 km/h 20.8 km/h 65 % 0 mm
13:17 -9.4 °C -12.9 °C 34625.2 hPa NE 7.7 km/h 20.8 km/h 66 % 0 mm
13:22 -9.6 °C -13.1 °C 34625.2 hPa SE 7.7 km/h 20.8 km/h 66 % 0 mm
13:27 -9.5 °C -12.8 °C 34625.2 hPa ENE 7.7 km/h 18.2 km/h 68 % 0 mm
13:32 -9.3 °C -12.7 °C 34635.4 hPa ESE 7.7 km/h 15.6 km/h 67 % 0 mm
13:37 -9 °C -12.2 °C 34625.2 hPa ENE 2.6 km/h 12.9 km/h 69 % 0 mm
13:42 -8.6 °C -12 °C 34625.2 hPa Calm   12.9 km/h 67 % 0 mm
13:47 -8 °C -11.2 °C 34625.2 hPa NE 2.6 km/h 12.9 km/h 69 % 0 mm
13:52 -7.6 °C -12.3 °C 34625.2 hPa Calm   10.3 km/h 58 % 0 mm
13:57 -7.3 °C -11.7 °C 34625.2 hPa Calm   10.3 km/h 60 % 0 mm
14:02 -7 °C -11.4 °C 34625.2 hPa South 7.7 km/h 15.6 km/h 60 % 0 mm
14:12 -7.5 °C -11.9 °C 34625.2 hPa NE 2.6 km/h 23.3 km/h 60 % 0 mm
14:17 -7.4 °C -12.2 °C 34611.7 hPa Calm   23.3 km/h 57 % 0 mm
14:22 -7.9 °C -12 °C 34625.2 hPa ENE 7.7 km/h 15.6 km/h 62 % 0 mm
14:32 -9.8 °C -12.1 °C 34645.6 hPa East 2.6 km/h 15.6 km/h 76 % 12.7 mm
14:42 -10.7 °C -12.2 °C 34645.6 hPa North 5.1 km/h 28.5 km/h 83 % 25.4 mm
14:47 -10.8 °C -12.1 °C 34645.6 hPa Calm   28.5 km/h 86 % 25.4 mm
14:52 -10.7 °C -11.9 °C 34645.6 hPa Calm   7.7 km/h 87 % 25.4 mm
14:57 -10.3 °C -11.2 °C 34645.6 hPa Calm   7.7 km/h 90 % 25.4 mm
15:02 -9.7 °C -10.8 °C 34645.6 hPa Calm   7.7 km/h 88 % 25.4 mm
15:12 -9.2 °C -10.9 °C 34645.6 hPa Calm   5.1 km/h 82 % 25.4 mm
15:17 -9 °C -10.6 °C 34659.1 hPa NE 7.7 km/h 7.7 km/h 83 % 25.4 mm
15:22 -9.2 °C -12.1 °C 34659.1 hPa East 5.1 km/h 28.5 km/h 71 % 20.32 mm
15:27 -9.3 °C -11.8 °C 34645.6 hPa Calm   28.5 km/h 74 % 12.7 mm
15:32 -9.2 °C -11.9 °C 34659.1 hPa ESE 2.6 km/h 28.5 km/h 73 % 12.7 mm
15:37 -9.3 °C -11.8 °C 34645.6 hPa East 2.6 km/h 23.3 km/h 75 % 0 mm
15:42 -9.4 °C -11.8 °C 34645.6 hPa ENE 2.6 km/h 18.2 km/h 75 % 0 mm
15:47 -9.2 °C -11.4 °C 34645.6 hPa Calm   10.3 km/h 77 % 0 mm
15:57 -8.7 °C -11.8 °C 34645.6 hPa Calm   15.6 km/h 69 % 0 mm
16:02 -8.6 °C -12 °C 34645.6 hPa Calm   18.2 km/h 67 % 0 mm
16:12 -8.4 °C -11.6 °C 34645.6 hPa East 2.6 km/h 28.5 km/h 69 % 0 mm
16:17 -8.1 °C -11.3 °C 34645.6 hPa East 5.1 km/h 28.5 km/h 69 % 0 mm
16:22 -8 °C -11.7 °C 34645.6 hPa East 2.6 km/h 28.5 km/h 65 % 0 mm
16:27 -7.7 °C -11.7 °C 34645.6 hPa NE 2.6 km/h 15.6 km/h 63 % 0 mm
16:32 -7.4 °C -11.6 °C 34645.6 hPa SE 7.7 km/h 18.2 km/h 62 % 0 mm
16:37 -7.4 °C -11.9 °C 34645.6 hPa East 15.6 km/h 18.2 km/h 59 % 0 mm
16:42 -7.3 °C -11.7 °C 34645.6 hPa NE 15.6 km/h 20.8 km/h 60 % 0 mm
16:47 -7.3 °C -11.8 °C 34645.6 hPa SW 2.6 km/h 20.8 km/h 59 % 0 mm
16:52 -7.1 °C -11.8 °C 34635.4 hPa Calm   20.8 km/h 58 % 0 mm
16:57 -6.8 °C -11.7 °C 34635.4 hPa NE 5.1 km/h 20.8 km/h 57 % 0 mm
17:02 -6.9 °C -12.1 °C 34635.4 hPa ENE 5.1 km/h 18.2 km/h 55 % 0 mm
17:12 -6.8 °C -11.7 °C 34635.4 hPa NE 7.7 km/h 23.3 km/h 57 % 0 mm
17:17 -7.1 °C -11.7 °C 34635.4 hPa ENE 5.1 km/h 23.3 km/h 59 % 0 mm
17:22 -7.2 °C -12 °C 34635.4 hPa NE 10.3 km/h 15.6 km/h 57 % 0 mm
17:27 -7.1 °C -12.1 °C 34635.4 hPa East 5.1 km/h 20.8 km/h 56 % 0 mm
17:32 -6.8 °C -11.8 °C 34635.4 hPa Calm   20.8 km/h 56 % 0 mm
17:42 -6.8 °C -12.4 °C 34635.4 hPa NE 23.3 km/h 23.3 km/h 52 % 0 mm
17:47 -7.2 °C -12.3 °C 34645.6 hPa East 15.6 km/h 23.3 km/h 55 % 0 mm
17:52 -7.3 °C -12.2 °C 34645.6 hPa NE 7.7 km/h 23.3 km/h 57 % 0 mm
17:57 -7.4 °C -12.5 °C 34645.6 hPa NE 12.9 km/h 23.3 km/h 55 % 0 mm
18:02 -7.6 °C -12.4 °C 34645.6 hPa ENE 12.9 km/h 20.8 km/h 57 % 0 mm
18:07 -7.6 °C -12.4 °C 34645.6 hPa ENE 7.7 km/h 20.8 km/h 57 % 0 mm
18:12 -7.5 °C -12.2 °C 34645.6 hPa ENE 7.7 km/h 25.9 km/h 58 % 0 mm
18:17 -7.4 °C -12.4 °C 34645.6 hPa ENE 7.7 km/h 25.9 km/h 56 % 0 mm
18:22 -7.1 °C -12.1 °C 34645.6 hPa NE 5.1 km/h 25.9 km/h 56 % 0 mm
18:27 -6.9 °C -12.1 °C 34645.6 hPa SE 7.7 km/h 18.2 km/h 55 % 0 mm
18:32 -6.8 °C -12.3 °C 34645.6 hPa ENE 18.2 km/h 18.2 km/h 53 % 0 mm
18:37 -6.9 °C -12.8 °C 34645.6 hPa ENE 5.1 km/h 25.9 km/h 50 % 0 mm
18:42 -7.1 °C -12.3 °C 34645.6 hPa ENE 5.1 km/h 25.9 km/h 55 % 0 mm
18:47 -7.1 °C -12.9 °C 34645.6 hPa ESE 10.3 km/h 25.9 km/h 51 % 0 mm
18:52 -7.1 °C -12.6 °C 34645.6 hPa NE 7.7 km/h 20.8 km/h 53 % 0 mm
18:57 -7.1 °C -12.3 °C 34645.6 hPa ENE 12.9 km/h 20.8 km/h 54 % 0 mm
19:02 -7.2 °C -12.3 °C 34645.6 hPa ENE 2.6 km/h 20.8 km/h 55 % 0 mm
19:12 -7.3 °C -12.6 °C 34645.6 hPa NE 5.1 km/h 23.3 km/h 54 % 0 mm
19:17 -7.3 °C -12.6 °C 34645.6 hPa NNE 5.1 km/h 23.3 km/h 54 % 0 mm
19:22 -7.4 °C -12.7 °C 34645.6 hPa ENE 5.1 km/h 18.2 km/h 54 % 0 mm
19:32 -7.4 °C -12.3 °C 34645.6 hPa ESE 10.3 km/h 18.2 km/h 57 % 0 mm
19:37 -7.5 °C -12.6 °C 34645.6 hPa ENE 5.1 km/h 18.2 km/h 55 % 0 mm
19:42 -7.6 °C -12.5 °C 34659.1 hPa NNE 12.9 km/h 15.6 km/h 56 % 0 mm
19:47 -7.6 °C -12.7 °C 34659.1 hPa ENE 7.7 km/h 18.2 km/h 55 % 0 mm
19:52 -7.6 °C -12.7 °C 34659.1 hPa East 15.6 km/h 18.2 km/h 55 % 0 mm
19:57 -7.7 °C -12.8 °C 34659.1 hPa ENE 5.1 km/h 20.8 km/h 55 % 0 mm
20:02 -7.7 °C -12.9 °C 34659.1 hPa NE 5.1 km/h 20.8 km/h 54 % 0 mm
20:12 -7.7 °C -12.8 °C 34659.1 hPa ENE 5.1 km/h 18.2 km/h 55 % 0 mm
20:17 -7.8 °C -12.8 °C 34659.1 hPa NE 5.1 km/h 15.6 km/h 56 % 0 mm
20:22 -7.9 °C -12.7 °C 34669.3 hPa NNE 2.6 km/h 12.9 km/h 57 % 0 mm
20:27 -7.9 °C -12.6 °C 34669.3 hPa Calm   12.9 km/h 58 % 0 mm
20:32 -8 °C -12.7 °C 34669.3 hPa ENE 5.1 km/h 12.9 km/h 58 % 0 mm
20:37 -8.1 °C -12.4 °C 34669.3 hPa ENE 7.7 km/h 10.3 km/h 60 % 0 mm
20:42 -8.2 °C -12.4 °C 34669.3 hPa NE 7.7 km/h 12.9 km/h 61 % 0 mm
20:52 -8.4 °C -12.1 °C 34682.8 hPa NE 12.9 km/h 15.6 km/h 65 % 0 mm
20:57 -8.4 °C -12 °C 34682.8 hPa East 2.6 km/h 18.2 km/h 66 % 0 mm
21:02 -8.6 °C -12 °C 34682.8 hPa NE 2.6 km/h 18.2 km/h 67 % 0 mm
21:07 -8.7 °C -12.1 °C 34682.8 hPa Calm   18.2 km/h 67 % 0 mm
21:12 -8.8 °C -12.1 °C 34682.8 hPa Calm   10.3 km/h 68 % 0 mm
21:17 -8.9 °C -12.1 °C 34682.8 hPa NE 2.6 km/h 5.1 km/h 69 % 0 mm
21:22 -9 °C -12.2 °C 34682.8 hPa Calm   5.1 km/h 69 % 0 mm
21:27 -9.1 °C -12 °C 34682.8 hPa Calm   7.7 km/h 71 % 0 mm
21:32 -9.3 °C -12.1 °C 34682.8 hPa Calm   7.7 km/h 72 % 0 mm
21:37 -9.5 °C -12.2 °C 34693 hPa Calm   5.1 km/h 73 % 0 mm
21:42 -9.7 °C -12.1 °C 34693 hPa Calm     75 % 0 mm
21:47 -9.9 °C -12.2 °C 34693 hPa Calm     76 % 0 mm
21:52 -10.1 °C -12.3 °C 34703.1 hPa Calm     77 % 0 mm
21:57 -10.3 °C -12.3 °C 34703.1 hPa Calm     79 % 0 mm
22:02 -10.4 °C -12.3 °C 34703.1 hPa Calm     80 % 0 mm
22:07 -10.6 °C -12.3 °C 34703.1 hPa Calm     82 % 0 mm
22:12 -10.7 °C -12.4 °C 34703.1 hPa Calm     82 % 0 mm
22:17 -10.9 °C -12.3 °C 34716.7 hPa Calm     84 % 0 mm
22:22 -10.9 °C -12.3 °C 34716.7 hPa Calm     85 % 0 mm
22:27 -11.1 °C -12.4 °C 34716.7 hPa Calm     85 % 0 mm
22:32 -11.1 °C -12.3 °C 34716.7 hPa Calm     87 % 0 mm
22:37 -11.2 °C -12.4 °C 34716.7 hPa Calm     87 % 0 mm
22:42 -11.2 °C -12.3 °C 34716.7 hPa Calm     88 % 0 mm
22:52 -11.3 °C -12.4 °C 34726.8 hPa Calm     88 % 0 mm
22:57 -11.3 °C -12.3 °C 34726.8 hPa Calm     89 % 0 mm
23:02 -11.4 °C -12.4 °C 34726.8 hPa Calm     89 % 0 mm
23:12 -11.5 °C -12.4 °C 34726.8 hPa Calm     89 % 0 mm
23:17 -11.6 °C -12.4 °C 34726.8 hPa Calm     90 % 0 mm
23:22 -11.6 °C -12.4 °C 34726.8 hPa Calm     90 % 0 mm
23:27 -11.7 °C -12.6 °C 34726.8 hPa Calm     90 % 0 mm
23:32 -11.7 °C -12.6 °C 34726.8 hPa Calm     90 % 0 mm
23:37 -11.8 °C -12.6 °C 34726.8 hPa Calm     91 % 0 mm
23:42 -11.8 °C -12.6 °C 34740.4 hPa Calm     91 % 0 mm
23:52 -11.9 °C -12.6 °C 34740.4 hPa Calm     92 % 0 mm
23:57 -11.9 °C -12.6 °C 34740.4 hPa Calm     92 % 0 mm
Meteo18
Compliments of Weather Underground - 4 mb

Script developed by  Jim McMurry - jmcmurry@mwt.net Adapted for the template by  Wim van der Kuil - Leuven-Template.eu

You find our weather info also at:

European Weather Network

Weather Underground

Equipment we use:

Weather-station
Davis Vue

Weather-program
Meteobridge

Weather-server
Raspberry PI 2 B+

Provider
1 and 1

Davis Vue

Meteobridge

Raspberry PI 2 B+

1 and 1